Time;durP1;ratioP1;P1;durP2;ratioP2;P2;SDS_P1;SDS_P2;PMS_P1;PMS_P2;Temp;Humidity;BMP_temperature;BMP_pressure;BME280_temperature;BME280_humidity;BME280_pressure;Samples;Min_cycle;Max_cycle;Signal;HPM_P1;HPM_P2
2021/04/10 00:00:10;;;;;;;2.47;1.00;;;;;;;15.86;38.46;96679.47;5093525;28;20045;-75
2021/04/10 00:02:35;;;;;;;1.83;0.68;;;;;;;15.80;38.99;96672.75;5087277;27;20023;-75
2021/04/10 00:05:02;;;;;;;2.40;0.93;;;;;;;16.18;37.77;96683.09;5089211;27;20386;-75
2021/04/10 00:07:27;;;;;;;3.38;1.08;;;;;;;15.98;38.73;96678.22;5088762;28;20039;-75
2021/04/10 00:09:53;;;;;;;3.45;0.90;;;;;;;15.76;38.75;96682.28;5096884;27;20385;-75
2021/04/10 00:12:18;;;;;;;2.00;0.65;;;;;;;15.59;39.09;96668.91;5083363;28;20062;-76
2021/04/10 00:14:44;;;;;;;2.20;0.60;;;;;;;15.55;39.24;96671.31;5107921;27;20036;-75
2021/04/10 00:17:09;;;;;;;2.38;0.60;;;;;;;15.57;39.43;96679.69;5104793;27;20059;-76
2021/04/10 00:19:35;;;;;;;1.85;1.02;;;;;;;15.64;39.21;96669.59;5085093;27;20485;-76
2021/04/10 00:22:00;;;;;;;2.38;1.30;;;;;;;15.81;38.88;96679.56;5093380;27;20035;-75
2021/04/10 00:24:25;;;;;;;4.55;1.02;;;;;;;15.92;38.61;96674.91;5110650;27;20265;-75
2021/04/10 00:26:51;;;;;;;3.15;0.73;;;;;;;15.72;39.09;96676.78;5076534;28;20088;-76
2021/04/10 00:29:18;;;;;;;4.00;1.10;;;;;;;15.69;39.05;96663.47;5082238;27;20036;-75
2021/04/10 00:31:44;;;;;;;2.45;1.02;;;;;;;15.71;39.32;96654.25;5089847;27;20081;-76
2021/04/10 00:34:09;;;;;;;1.88;0.80;;;;;;;15.99;38.35;96669.25;5128753;27;20039;-75
2021/04/10 00:36:34;;;;;;;3.45;0.93;;;;;;;15.76;39.03;96665.75;5107505;27;20487;-76
2021/04/10 00:39:00;;;;;;;3.45;0.90;;;;;;;15.50;39.97;96668.78;5086633;27;20035;-76
2021/04/10 00:41:25;;;;;;;3.97;0.80;;;;;;;15.13;41.00;96665.16;5088891;27;20207;-75
2021/04/10 00:43:50;;;;;;;4.72;0.93;;;;;;;15.25;40.50;96652.41;5111036;27;20054;-75
2021/04/10 00:46:16;;;;;;;4.32;1.20;;;;;;;15.46;40.19;96665.19;5128987;27;20087;-75
2021/04/10 00:48:41;;;;;;;1.58;0.82;;;;;;;15.35;39.96;96654.06;5100887;28;20095;-75
2021/04/10 00:51:07;;;;;;;3.33;0.60;;;;;;;15.35;40.58;96656.69;5105279;27;20117;-75
2021/04/10 00:53:34;;;;;;;2.92;0.68;;;;;;;15.70;39.94;96665.03;5061304;28;20024;-76
2021/04/10 00:56:05;;;;;;;1.83;0.70;;;;;;;15.26;40.64;96668.91;5079211;28;20475;-76
2021/04/10 00:58:31;;;;;;;3.65;1.15;;;;;;;15.60;40.37;96657.34;5060151;28;20082;-76
2021/04/10 01:00:57;;;;;;;1.55;0.80;;;;;;;15.53;40.75;96661.13;5089852;28;20040;-75
2021/04/10 01:03:23;;;;;;;4.20;1.38;;;;;;;15.68;40.34;96661.94;5058630;28;20028;-75
2021/04/10 01:05:48;;;;;;;2.63;0.85;;;;;;;15.45;40.88;96669.63;5080087;28;20391;-75
2021/04/10 01:08:13;;;;;;;2.72;0.90;;;;;;;15.35;41.23;96656.69;5102312;28;20349;-75
2021/04/10 01:10:39;;;;;;;4.13;1.20;;;;;;;15.64;40.61;96650.44;5078988;27;20410;-75
2021/04/10 01:13:35;;;;;;;2.38;1.33;;;;;;;15.32;41.21;96663.31;5103417;27;20027;-76
2021/04/10 01:16:08;;;;;;;3.65;0.90;;;;;;;15.15;41.30;96649.94;5091262;27;20221;-75
2021/04/10 01:18:42;;;;;;;1.85;1.23;;;;;;;15.21;41.70;96661.13;5081527;27;20043;-75
2021/04/10 01:21:13;;;;;;;2.20;0.82;;;;;;;15.54;41.00;96652.19;5128530;27;20019;-75
2021/04/10 01:24:03;;;;;;;2.45;0.90;;;;;;;15.19;42.10;96658.03;5098531;27;20489;-75
2021/04/10 01:26:52;;;;;;;2.60;1.17;;;;;;;15.41;41.62;96666.03;5109245;27;20034;-75
2021/04/10 01:29:18;;;;;;;2.50;0.90;;;;;;;15.62;41.05;96655.97;5075564;27;20069;-75
2021/04/10 01:31:46;;;;;;;5.18;1.10;;;;;;;15.74;41.54;96655.50;5092944;27;20206;-75
2021/04/10 01:34:37;;;;;;;3.33;1.02;;;;;;;15.29;41.99;96663.88;5093419;27;20041;-75
2021/04/10 01:37:23;;;;;;;3.83;1.00;;;;;;;15.02;42.12;96664.56;5085951;28;20024;-75
2021/04/10 01:39:49;;;;;;;2.13;1.00;;;;;;;15.58;41.95;96662.13;5105568;27;20227;-76
2021/04/10 01:42:18;;;;;;;1.65;0.70;;;;;;;15.46;41.91;96673.84;5089706;28;20129;-76
2021/04/10 01:44:44;;;;;;;1.70;0.82;;;;;;;15.67;42.08;96673.50;5103100;27;20409;-75
2021/04/10 01:47:12;;;;;;;3.38;0.80;;;;;;;15.47;42.73;96669.34;5078127;28;20024;-75
2021/04/10 01:49:39;;;;;;;3.65;1.40;;;;;;;15.69;42.13;96677.38;5084931;28;20027;-75
2021/04/10 01:52:05;;;;;;;3.75;1.00;;;;;;;15.44;43.08;96675.97;5106447;28;20039;-75
2021/04/10 01:54:32;;;;;;;2.80;1.35;;;;;;;15.22;43.27;96681.81;5089691;28;20031;-75
2021/04/10 01:56:57;;;;;;;2.70;0.90;;;;;;;15.48;42.67;96676.16;5077416;28;20031;-75
2021/04/10 01:59:23;;;;;;;4.57;1.13;;;;;;;15.73;42.37;96672.34;5069892;28;20535;-75
2021/04/10 02:01:49;;;;;;;3.03;1.25;;;;;;;15.63;42.69;96673.28;5088427;28;20051;-75
2021/04/10 02:04:15;;;;;;;1.85;1.10;;;;;;;15.39;43.18;96677.88;5076877;28;20026;-75
2021/04/10 02:06:44;;;;;;;2.85;0.90;;;;;;;15.60;42.29;96683.59;5103258;28;20486;-75
2021/04/10 02:09:10;;;;;;;1.63;1.00;;;;;;;15.71;42.63;96674.47;5086430;28;20024;-75
2021/04/10 02:11:36;;;;;;;3.33;1.77;;;;;;;15.48;42.97;96679.56;5117974;28;20043;-75
2021/04/10 02:14:02;;;;;;;3.60;0.95;;;;;;;15.62;42.60;96676.19;5091707;28;20035;-75
2021/04/10 02:16:28;;;;;;;2.40;1.05;;;;;;;15.58;42.97;96681.25;5096721;28;20385;-75
2021/04/10 02:18:53;;;;;;;2.25;0.80;;;;;;;15.80;42.49;96677.22;5079540;28;20115;-75
2021/04/10 02:21:25;;;;;;;1.73;0.93;;;;;;;15.42;43.72;96682.56;5092201;28;20038;-76
2021/04/10 02:23:52;;;;;;;2.92;1.17;;;;;;;15.73;42.81;96690.72;5121824;28;20051;-76
2021/04/10 02:26:20;;;;;;;2.33;1.38;;;;;;;15.70;43.14;96684.19;5103904;27;20576;-75
2021/04/10 02:28:46;;;;;;;2.97;1.13;;;;;;;15.67;43.76;96697.09;5056014;28;20515;-75
2021/04/10 02:31:18;;;;;;;2.75;0.90;;;;;;;15.47;44.81;96701.63;5083719;28;20063;-75
2021/04/10 02:33:45;;;;;;;1.92;1.00;;;;;;;15.12;45.99;96695.84;5078067;27;20061;-75
2021/04/10 02:36:16;;;;;;;3.40;1.48;;;;;;;15.07;46.86;96688.06;5125515;27;20042;-75
2021/04/10 02:38:43;;;;;;;2.22;1.45;;;;;;;15.13;47.18;96692.19;5077915;27;20031;-75
2021/04/10 02:41:16;;;;;;;3.65;1.08;;;;;;;14.48;48.52;96698.03;5090730;27;20039;-76
2021/04/10 02:43:44;;;;;;;2.25;1.27;;;;;;;14.51;50.62;96694.03;5104600;27;20038;-76
2021/04/10 02:46:12;;;;;;;2.72;1.20;;;;;;;14.69;50.27;96703.81;5110666;28;20495;-75
2021/04/10 02:48:44;;;;;;;2.63;1.30;;;;;;;14.64;51.42;96698.63;5101103;27;20035;-76
2021/04/10 02:51:10;;;;;;;2.45;1.20;;;;;;;14.98;50.08;96703.66;5114705;27;20099;-75
2021/04/10 02:53:37;;;;;;;3.75;1.33;;;;;;;14.31;51.08;96698.47;5080696;27;20542;-75
2021/04/10 02:56:03;;;;;;;2.45;1.20;;;;;;;14.50;51.63;96685.41;5096397;27;20493;-75
2021/04/10 02:58:31;;;;;;;3.13;1.17;;;;;;;14.38;51.90;96692.91;5086345;27;20167;-76
2021/04/10 03:00:57;;;;;;;1.88;1.20;;;;;;;14.19;52.89;96698.09;5088570;28;20050;-76
2021/04/10 03:03:23;;;;;;;3.00;1.40;;;;;;;14.39;51.70;96695.25;5113751;27;20027;-75
2021/04/10 03:05:49;;;;;;;2.70;1.38;;;;;;;14.70;51.13;96700.13;5090249;27;20156;-75
2021/04/10 03:08:16;;;;;;;2.22;1.55;;;;;;;14.71;51.47;96706.91;5090962;27;20163;-76
2021/04/10 03:10:53;;;;;;;2.80;1.38;;;;;;;14.42;51.68;96702.50;5093960;27;20038;-75
2021/04/10 03:13:21;;;;;;;3.00;1.20;;;;;;;14.65;51.31;96697.56;5121685;27;20028;-75
2021/04/10 03:15:50;;;;;;;3.25;1.52;;;;;;;14.68;51.24;96698.84;5096914;27;20027;-75
2021/04/10 03:18:16;;;;;;;2.25;1.30;;;;;;;14.69;50.94;96697.78;5079860;27;20347;-75
2021/04/10 03:20:43;;;;;;;1.85;1.50;;;;;;;14.84;50.10;96694.97;5077516;27;20031;-75
2021/04/10 03:23:09;;;;;;;1.92;1.23;;;;;;;14.85;49.92;96695.72;5106812;28;20041;-75
2021/04/10 03:25:34;;;;;;;2.30;1.10;;;;;;;14.55;50.35;96705.53;5095751;27;20377;-76
2021/04/10 03:28:00;;;;;;;1.77;1.15;;;;;;;14.30;51.03;96702.13;5113205;27;20042;-75
2021/04/10 03:30:25;;;;;;;3.80;1.08;;;;;;;14.37;49.80;96701.81;5072490;27;20106;-76
2021/04/10 03:32:51;;;;;;;2.30;1.20;;;;;;;14.47;50.46;96700.91;5080034;28;20417;-75
2021/04/10 03:35:17;;;;;;;2.13;1.20;;;;;;;14.22;49.82;96700.13;5112169;27;20639;-75
2021/04/10 03:37:43;;;;;;;3.22;1.08;;;;;;;14.11;50.02;96709.19;5095543;27;20037;-75
2021/04/10 03:40:13;;;;;;;3.45;1.25;;;;;;;14.26;49.38;96711.63;5073270;28;20489;-75
2021/04/10 03:42:43;;;;;;;2.50;1.20;;;;;;;14.37;49.08;96720.91;5114533;27;20046;-75
2021/04/10 03:45:19;;;;;;;3.45;1.08;;;;;;;14.31;48.93;96722.03;5105955;27;20046;-75
2021/04/10 03:47:45;;;;;;;1.77;0.70;;;;;;;14.46;48.58;96728.16;5112763;27;20067;-75
2021/04/10 03:50:11;;;;;;;4.30;1.38;;;;;;;14.54;48.60;96730.16;5095158;27;20063;-75
2021/04/10 03:52:36;;;;;;;3.22;1.00;;;;;;;14.41;48.60;96731.59;5113548;27;20521;-75
2021/04/10 03:55:04;;;;;;;3.25;0.80;;;;;;;14.36;49.14;96735.09;5095830;27;20080;-75
2021/04/10 03:57:29;;;;;;;2.90;1.20;;;;;;;14.58;48.36;96742.47;5092469;28;20431;-75
2021/04/10 03:59:55;;;;;;;1.35;0.80;;;;;;;14.22;49.28;96736.78;5105568;27;20127;-76
2021/04/10 04:02:20;;;;;;;3.22;0.80;;;;;;;13.84;49.51;96736.66;5083900;27;20545;-75
2021/04/10 04:04:48;;;;;;;2.05;1.00;;;;;;;13.90;49.69;96740.00;5089657;27;20042;-75
2021/04/10 04:07:13;;;;;;;2.13;1.00;;;;;;;13.93;50.01;96737.63;5112646;27;20031;-75
2021/04/10 04:09:38;;;;;;;3.22;1.08;;;;;;;14.07;49.45;96731.72;5064901;27;20419;-75
2021/04/10 04:12:05;;;;;;;2.67;0.95;;;;;;;14.19;49.05;96737.38;5110315;27;20445;-75
2021/04/10 04:14:30;;;;;;;3.53;0.95;;;;;;;13.75;49.53;96736.47;5078772;27;20438;-76
2021/04/10 04:16:56;;;;;;;2.28;0.85;;;;;;;14.02;49.01;96738.56;5116643;27;20032;-75
2021/04/10 04:19:21;;;;;;;3.42;0.85;;;;;;;13.98;49.48;96747.25;5084539;27;20027;-75
2021/04/10 04:21:47;;;;;;;2.03;1.10;;;;;;;13.98;49.73;96749.84;5104909;27;20035;-75
2021/04/10 04:24:12;;;;;;;2.10;0.90;;;;;;;13.62;49.87;96750.97;5111658;27;20059;-75
2021/04/10 04:26:38;;;;;;;2.33;0.82;;;;;;;13.78;49.59;96758.69;5087492;27;20059;-75
2021/04/10 04:29:03;;;;;;;2.67;1.00;;;;;;;13.84;49.27;96749.72;5110140;27;20077;-75
2021/04/10 04:31:28;;;;;;;5.20;1.25;;;;;;;13.91;48.87;96755.41;5068391;27;20029;-74
2021/04/10 04:33:58;;;;;;;3.10;0.85;;;;;;;13.95;49.20;96759.06;5105299;27;20088;-75
2021/04/10 04:36:24;;;;;;;1.92;0.98;;;;;;;13.84;49.51;96765.44;5104185;28;20023;-75
2021/04/10 04:38:49;;;;;;;4.05;1.60;;;;;;;13.34;50.44;96776.00;5088396;27;20323;-74
2021/04/10 04:41:14;;;;;;;2.35;1.10;;;;;;;13.26;50.74;96769.50;5088439;27;20219;-76
2021/04/10 04:43:40;;;;;;;2.25;1.15;;;;;;;13.80;49.81;96777.50;5112523;27;20038;-75
2021/04/10 04:46:05;;;;;;;2.70;1.10;;;;;;;13.88;49.48;96778.75;5111928;27;20023;-76
2021/04/10 04:48:31;;;;;;;3.78;0.98;;;;;;;13.71;50.13;96773.91;5088191;28;20054;-75
2021/04/10 04:50:56;;;;;;;3.17;1.52;;;;;;;13.45;50.24;96776.72;5111424;27;20273;-74
2021/04/10 04:53:22;;;;;;;2.33;0.85;;;;;;;13.94;49.55;96777.66;5105114;27;20031;-75
2021/04/10 04:55:47;;;;;;;3.70;1.02;;;;;;;13.86;49.84;96786.88;5111552;27;20477;-75
2021/04/10 04:58:13;;;;;;;2.10;0.90;;;;;;;13.95;49.64;96793.09;5111430;27;20042;-75
2021/04/10 05:00:38;;;;;;;2.53;1.20;;;;;;;14.02;49.16;96803.25;5074902;27;20049;-75
2021/04/10 05:03:04;;;;;;;2.70;1.02;;;;;;;14.04;49.25;96804.50;5105217;28;20080;-75
2021/04/10 05:05:29;;;;;;;4.47;1.23;;;;;;;13.35;50.86;96801.13;5107323;28;20126;-75
2021/04/10 05:07:54;;;;;;;2.13;1.10;;;;;;;13.30;50.85;96811.56;5089740;28;20119;-75
2021/04/10 05:10:20;;;;;;;2.47;0.90;;;;;;;13.49;50.39;96828.22;5070938;27;20473;-75
2021/04/10 05:12:45;;;;;;;2.40;0.90;;;;;;;13.48;50.56;96828.47;5124019;27;20038;-75
2021/04/10 05:15:11;;;;;;;1.80;0.95;;;;;;;13.43;50.35;96831.91;5086578;27;20023;-74
2021/04/10 05:17:36;;;;;;;2.60;1.20;;;;;;;13.39;51.40;96835.34;5103829;27;20478;-75
2021/04/10 05:20:03;;;;;;;1.88;0.77;;;;;;;13.22;51.25;96833.81;5092768;27;20083;-75
2021/04/10 05:22:28;;;;;;;1.98;0.75;;;;;;;13.16;50.51;96831.50;5087799;27;20039;-75
2021/04/10 05:24:54;;;;;;;1.17;0.80;;;;;;;13.09;50.51;96831.78;5114105;27;20038;-75
2021/04/10 05:27:19;;;;;;;1.60;1.00;;;;;;;13.29;49.98;96836.13;5103663;27;20517;-75
2021/04/10 05:29:44;;;;;;;1.67;0.68;;;;;;;13.15;49.84;96835.94;5088917;27;20383;-75
2021/04/10 05:32:10;;;;;;;3.47;1.00;;;;;;;12.78;50.57;96831.91;5110677;27;20030;-75
2021/04/10 05:34:36;;;;;;;1.10;0.75;;;;;;;13.19;49.30;96844.03;5094674;27;20043;-75
2021/04/10 05:37:02;;;;;;;2.28;0.70;;;;;;;12.88;49.41;96833.72;5090803;28;20501;-75
2021/04/10 05:39:27;;;;;;;2.35;1.10;;;;;;;12.65;50.37;96842.94;5089017;28;20122;-75
2021/04/10 05:41:53;;;;;;;2.58;0.60;;;;;;;12.79;49.66;96843.16;5084565;28;20032;-75
2021/04/10 05:44:19;;;;;;;2.80;0.80;;;;;;;12.71;49.95;96852.31;5075062;28;20110;-75
2021/04/10 05:46:44;;;;;;;1.75;0.52;;;;;;;12.89;49.80;96851.75;5105000;28;20032;-75
2021/04/10 05:49:09;;;;;;;3.97;0.93;;;;;;;12.88;49.58;96871.06;5089934;28;20038;-75
2021/04/10 05:51:35;;;;;;;1.52;0.65;;;;;;;12.49;50.69;96863.88;5082776;28;20059;-75
2021/04/10 05:54:00;;;;;;;2.72;0.50;;;;;;;12.39;50.77;96876.13;5106324;28;20066;-75
2021/04/10 05:56:25;;;;;;;2.60;0.70;;;;;;;12.11;50.95;96868.56;5105071;28;20047;-75
2021/04/10 05:58:51;;;;;;;3.38;0.75;;;;;;;12.57;49.90;96875.59;5110312;28;20084;-74
2021/04/10 06:01:16;;;;;;;1.23;0.60;;;;;;;12.80;49.18;96882.09;5103007;28;20165;-75
2021/04/10 06:03:42;;;;;;;3.15;1.05;;;;;;;12.80;49.32;96889.13;5083188;28;20039;-75
2021/04/10 06:06:08;;;;;;;1.73;0.70;;;;;;;12.88;49.01;96881.53;5103407;28;20261;-75
2021/04/10 06:08:34;;;;;;;2.33;0.70;;;;;;;12.70;49.46;96884.72;5090477;28;20490;-75
2021/04/10 06:10:59;;;;;;;3.53;1.10;;;;;;;12.72;49.25;96885.22;5107427;28;20031;-74
2021/04/10 06:13:24;;;;;;;1.60;0.70;;;;;;;12.98;48.38;96883.31;5071603;28;20040;-75
2021/04/10 06:15:50;;;;;;;1.05;0.60;;;;;;;12.76;49.40;96894.09;5103846;28;20042;-75
2021/04/10 06:18:16;;;;;;;2.05;0.98;;;;;;;12.62;48.95;96891.25;5093503;28;20042;-75
2021/04/10 06:20:41;;;;;;;2.20;1.08;;;;;;;12.46;49.98;96897.56;5093446;28;20031;-75
2021/04/10 06:23:06;;;;;;;2.80;0.68;;;;;;;12.67;49.41;96899.09;5077043;28;20039;-75
2021/04/10 06:25:32;;;;;;;3.50;0.80;;;;;;;12.26;50.60;96903.56;5108055;28;20074;-75
2021/04/10 06:28:01;;;;;;;1.17;0.55;;;;;;;12.02;50.27;96883.19;5121748;28;20077;-76
2021/04/10 06:30:27;;;;;;;2.40;0.60;;;;;;;12.25;50.75;96907.22;5093783;28;20023;-75
2021/04/10 06:32:52;;;;;;;0.70;0.50;;;;;;;12.16;50.60;96899.91;5106585;28;20081;-75
2021/04/10 06:35:17;;;;;;;2.08;0.90;;;;;;;12.51;49.77;96906.16;5094388;28;20026;-75
2021/04/10 06:37:43;;;;;;;1.00;0.50;;;;;;;12.45;49.98;96912.41;5110469;28;20247;-74
2021/04/10 06:40:08;;;;;;;1.60;0.65;;;;;;;12.31;50.16;96914.00;5088463;28;20043;-75
2021/04/10 06:42:34;;;;;;;3.60;0.60;;;;;;;12.57;49.86;96917.38;5072020;28;20031;-75
2021/04/10 06:44:59;;;;;;;1.60;0.70;;;;;;;12.80;48.97;96923.09;5086953;28;20031;-75
2021/04/10 06:47:26;;;;;;;2.25;0.52;;;;;;;12.45;49.75;96922.88;5128167;28;20474;-75
2021/04/10 06:49:52;;;;;;;1.90;0.43;;;;;;;12.45;49.37;96920.25;5128758;28;20023;-75
2021/04/10 06:52:19;;;;;;;1.65;0.68;;;;;;;12.55;49.05;96925.47;5071713;28;20036;-75
2021/04/10 06:54:48;;;;;;;1.77;0.60;;;;;;;12.43;49.88;96921.56;5082148;28;20038;-75
2021/04/10 06:57:19;;;;;;;1.75;0.70;;;;;;;12.49;48.89;96917.91;5072094;28;20108;-75
2021/04/10 07:00:08;;;;;;;1.25;0.70;;;;;;;12.55;48.86;96922.84;5089776;28;20035;-75
2021/04/10 07:02:35;;;;;;;1.73;0.70;;;;;;;12.41;49.67;96921.84;5088869;28;20073;-75
2021/04/10 07:05:00;;;;;;;2.92;0.57;;;;;;;12.84;48.63;96924.13;5087495;28;20132;-75
2021/04/10 07:07:29;;;;;;;0.98;0.40;;;;;;;13.01;48.47;96916.00;5106573;28;20427;-75
2021/04/10 07:09:54;;;;;;;1.77;0.50;;;;;;;12.50;49.29;96903.81;5090153;28;20031;-75
2021/04/10 07:12:20;;;;;;;1.63;0.43;;;;;;;12.59;49.81;96914.50;5076718;28;20570;-75
2021/04/10 07:14:45;;;;;;;1.48;0.60;;;;;;;12.57;50.49;96914.00;5105581;28;20082;-75
2021/04/10 07:17:15;;;;;;;2.83;0.50;;;;;;;12.63;50.03;96918.94;5080613;28;20107;-75
2021/04/10 07:19:41;;;;;;;1.70;0.68;;;;;;;12.77;49.62;96913.97;5095824;27;20339;-75
2021/04/10 07:22:09;;;;;;;2.70;0.90;;;;;;;12.55;49.55;96911.63;5089561;27;20467;-75
2021/04/10 07:24:44;;;;;;;1.10;0.60;;;;;;;13.24;47.63;96918.00;5076509;28;20024;-75
2021/04/10 07:27:15;;;;;;;2.25;0.80;;;;;;;13.14;48.36;96923.25;5101731;27;20031;-75
2021/04/10 07:29:43;;;;;;;1.35;0.55;;;;;;;13.48;47.15;96920.78;5104585;27;20027;-75
2021/04/10 07:32:38;;;;;;;2.67;0.88;;;;;;;12.97;48.33;96918.38;5113935;27;20070;-76
2021/04/10 07:35:07;;;;;;;3.35;0.80;;;;;;;13.24;47.69;96925.06;5113797;27;20055;-75
2021/04/10 07:37:51;;;;;;;1.70;0.55;;;;;;;13.00;47.82;96923.03;5094243;27;20047;-75
2021/04/10 07:40:23;;;;;;;1.50;0.80;;;;;;;12.94;48.22;96929.34;5078626;28;20032;-75
2021/04/10 07:42:49;;;;;;;4.20;0.70;;;;;;;13.33;48.14;96936.53;5071266;27;20074;-75
2021/04/10 07:45:21;;;;;;;3.47;0.70;;;;;;;13.48;46.96;96940.94;5061802;27;20028;-75
2021/04/10 07:47:46;;;;;;;2.58;0.47;;;;;;;13.55;47.80;96938.81;5109366;27;20031;-76
2021/04/10 07:50:13;;;;;;;1.48;0.60;;;;;;;13.21;48.46;96936.84;5110538;27;20034;-76
2021/04/10 07:52:38;;;;;;;3.33;0.82;;;;;;;12.91;50.25;96941.09;5113139;27;20466;-75
2021/04/10 07:55:04;;;;;;;0.93;0.80;;;;;;;12.90;49.99;96942.16;5089761;27;20038;-75
2021/04/10 07:57:30;;;;;;;1.40;0.65;;;;;;;13.10;48.92;96943.16;5096150;27;20382;-75
2021/04/10 07:59:56;;;;;;;2.00;0.60;;;;;;;13.24;48.79;96938.91;5095983;27;20353;-74
2021/04/10 08:02:22;;;;;;;1.58;0.80;;;;;;;13.14;49.30;96938.94;5120909;27;20039;-74
2021/04/10 08:04:58;;;;;;;3.67;0.50;;;;;;;13.19;48.08;96943.38;5085074;28;20028;-74
2021/04/10 08:07:25;;;;;;;3.58;1.30;;;;;;;13.40;48.67;96944.09;5085066;28;20031;-75
2021/04/10 08:10:05;;;;;;;1.20;0.60;;;;;;;13.36;48.01;96946.47;5076573;27;20031;-74
2021/04/10 08:12:35;;;;;;;2.20;0.95;;;;;;;13.07;48.82;96943.66;5094170;27;20035;-74
2021/04/10 08:15:01;;;;;;;1.58;0.82;;;;;;;13.31;48.12;96946.47;5110456;27;20047;-74
2021/04/10 08:17:45;;;;;;;3.17;0.80;;;;;;;12.73;49.84;96944.25;5103831;27;20645;-74
2021/04/10 08:20:25;;;;;;;2.13;0.70;;;;;;;12.64;49.78;96949.22;5100451;27;20247;-74
2021/04/10 08:22:52;;;;;;;1.92;0.82;;;;;;;13.25;48.85;96952.78;5091512;28;20028;-74
2021/04/10 08:25:29;;;;;;;0.75;0.40;;;;;;;12.85;50.24;96957.84;5054752;28;20394;-74
2021/04/10 08:27:55;;;;;;;2.05;1.00;;;;;;;13.39;49.07;96950.41;5088977;28;20062;-74
2021/04/10 08:30:21;;;;;;;1.15;0.50;;;;;;;13.30;49.02;96958.78;5117328;27;20381;-74
2021/04/10 08:32:46;;;;;;;1.98;0.50;;;;;;;12.86;50.17;96956.78;5122846;27;20035;-75
2021/04/10 08:35:12;;;;;;;3.58;0.65;;;;;;;12.99;50.14;96958.06;5110648;27;20035;-75
2021/04/10 08:37:39;;;;;;;0.75;0.38;;;;;;;13.25;49.75;96961.41;5077955;27;20023;-74
2021/04/10 08:40:05;;;;;;;1.35;0.40;;;;;;;13.27;49.24;96955.91;5106844;28;20039;-74
2021/04/10 08:42:34;;;;;;;1.98;0.50;;;;;;;13.20;48.87;96958.81;5105535;28;20127;-74
2021/04/10 08:45:01;;;;;;;2.45;0.52;;;;;;;13.00;49.58;96964.84;5069580;27;20062;-74
2021/04/10 08:47:26;;;;;;;1.40;0.55;;;;;;;13.15;49.59;96956.19;5102742;27;20030;-74
2021/04/10 08:49:52;;;;;;;1.15;0.80;;;;;;;13.26;48.25;96964.78;5069847;28;20032;-74
2021/04/10 08:52:24;;;;;;;1.75;1.02;;;;;;;13.14;48.50;96959.84;5084486;27;20535;-74
2021/04/10 08:54:50;;;;;;;2.83;0.57;;;;;;;13.13;48.53;96966.16;5076711;27;20026;-74
2021/04/10 08:57:17;;;;;;;1.35;0.77;;;;;;;13.51;47.45;96968.41;5054862;28;20490;-74
2021/04/10 08:59:48;;;;;;;1.88;0.63;;;;;;;13.33;47.73;96960.09;5072523;27;20024;-74
2021/04/10 09:02:21;;;;;;;1.38;0.50;;;;;;;13.49;47.32;96960.81;5117073;27;20218;-74
2021/04/10 09:04:55;;;;;;;3.05;0.90;;;;;;;13.40;48.66;96959.81;5075554;28;20108;-74
2021/04/10 09:07:49;;;;;;;3.83;0.82;;;;;;;13.17;48.66;96959.31;5077888;28;20916;-75
2021/04/10 09:10:23;;;;;;;1.13;0.65;;;;;;;13.40;47.92;96960.59;5120850;27;20305;-74
2021/04/10 09:12:49;;;;;;;1.33;1.08;;;;;;;13.18;48.85;96960.91;5128388;27;20110;-74
2021/04/10 09:15:14;;;;;;;2.10;0.52;;;;;;;13.63;47.77;96961.03;5099655;28;20530;-73
2021/04/10 09:17:55;;;;;;;1.10;0.52;;;;;;;13.17;49.10;96959.31;5094069;28;20020;-74
2021/04/10 09:20:43;;;;;;;2.63;0.70;;;;;;;13.16;49.07;96964.81;5115634;27;20386;-74
2021/04/10 09:23:26;;;;;;;3.38;0.70;;;;;;;13.16;49.97;96970.84;5094638;27;20059;-74
2021/04/10 09:26:07;;;;;;;1.25;0.50;;;;;;;13.57;48.76;96973.34;5084287;27;20038;-74
2021/04/10 09:28:33;;;;;;;4.70;1.10;;;;;;;13.85;48.59;96971.13;5124089;27;20067;-75
2021/04/10 09:30:59;;;;;;;2.35;1.10;;;;;;;13.79;48.32;96972.19;5092650;27;20043;-75
2021/04/10 09:33:30;;;;;;;2.55;0.80;;;;;;;13.70;47.85;96971.97;5092640;27;20042;-74
2021/04/10 09:35:59;;;;;;;3.58;0.70;;;;;;;13.70;48.02;96968.59;5119960;27;20062;-74
2021/04/10 09:38:41;;;;;;;1.88;0.60;;;;;;;13.17;49.19;96969.78;5091065;27;20104;-74
2021/04/10 09:41:06;;;;;;;2.90;0.70;;;;;;;13.30;49.47;96963.22;5071765;27;20416;-74
2021/04/10 09:43:32;;;;;;;1.95;0.70;;;;;;;13.62;49.20;96978.56;5092602;28;20023;-75
2021/04/10 09:45:58;;;;;;;0.90;0.50;;;;;;;13.35;49.79;96965.03;5087483;28;20506;-74
2021/04/10 09:48:24;;;;;;;1.95;0.77;;;;;;;13.67;48.63;96968.06;5085218;28;20038;-74
2021/04/10 09:50:50;;;;;;;2.95;0.73;;;;;;;13.53;48.60;96958.47;5104974;28;20024;-74
2021/04/10 09:53:22;;;;;;;2.28;1.00;;;;;;;13.66;48.33;96961.28;5119800;27;20080;-74
2021/04/10 09:55:49;;;;;;;2.15;0.95;;;;;;;14.01;48.49;96967.34;5090130;28;20486;-74
2021/04/10 09:58:16;;;;;;;2.33;0.50;;;;;;;13.77;48.20;96958.59;5071833;28;20019;-74
2021/04/10 10:00:50;;;;;;;1.67;0.60;;;;;;;13.39;50.00;96958.25;5092380;28;20551;-74
2021/04/10 10:03:22;;;;;;;2.20;0.50;;;;;;;13.57;48.41;96957.66;5086424;28;20209;-74
2021/04/10 10:05:49;;;;;;;2.22;0.47;;;;;;;13.99;46.99;96956.38;5085655;28;20078;-74
2021/04/10 10:08:16;;;;;;;0.95;0.57;;;;;;;13.79;47.86;96953.88;5088946;28;20031;-75
2021/04/10 10:10:45;;;;;;;1.42;0.57;;;;;;;13.98;48.33;96960.06;5088225;28;20421;-74
2021/04/10 10:13:15;;;;;;;1.90;0.60;;;;;;;14.11;47.10;96958.66;5106621;28;20028;-75
2021/04/10 10:15:40;;;;;;;1.90;0.52;;;;;;;13.95;47.65;96952.75;5101343;28;20336;-75
2021/04/10 10:18:16;;;;;;;1.13;0.52;;;;;;;13.91;46.99;96951.72;5083732;28;20055;-74
2021/04/10 10:20:58;;;;;;;2.97;0.60;;;;;;;13.67;47.05;96946.34;5068781;28;20023;-75
2021/04/10 10:23:25;;;;;;;0.73;0.40;;;;;;;14.09;47.12;96939.84;5127618;28;20325;-74
2021/04/10 10:25:50;;;;;;;2.58;0.50;;;;;;;13.98;46.40;96941.75;5107993;28;20429;-74
2021/04/10 10:28:17;;;;;;;25.00;1.75;;;;;;;14.13;46.35;96929.59;5091397;28;20024;-74
2021/04/10 10:30:43;;;;;;;2.40;0.95;;;;;;;14.14;46.45;96949.50;5109272;28;20561;-74
2021/04/10 10:33:08;;;;;;;1.05;0.70;;;;;;;14.22;46.05;96946.28;5087064;28;20494;-74
2021/04/10 10:35:34;;;;;;;10.23;1.20;;;;;;;14.15;46.11;96932.72;5095803;28;20042;-75
2021/04/10 10:38:06;;;;;;;0.98;0.50;;;;;;;13.75;45.98;96932.69;5090951;28;20023;-74
2021/04/10 10:40:33;;;;;;;1.23;0.50;;;;;;;14.32;45.65;96940.19;5104126;28;20485;-74
2021/04/10 10:43:03;;;;;;;0.95;0.70;;;;;;;14.26;45.44;96928.97;5108558;28;20440;-75
2021/04/10 10:45:59;;;;;;;1.05;0.40;;;;;;;13.89;45.64;96927.66;5106818;28;20031;-74
2021/04/10 10:48:30;;;;;;;1.63;0.80;;;;;;;13.87;45.12;96927.13;5088842;27;20043;-74
2021/04/10 10:50:58;;;;;;;0.88;0.47;;;;;;;14.03;44.70;96933.84;5130651;27;20023;-75
2021/04/10 10:53:25;;;;;;;1.50;0.40;;;;;;;14.16;44.84;96927.22;5103779;27;20557;-74
2021/04/10 10:56:07;;;;;;;1.65;0.98;;;;;;;14.19;44.62;96925.91;5095091;27;20027;-75
2021/04/10 10:58:33;;;;;;;1.45;0.60;;;;;;;14.02;44.36;96921.81;5105124;27;20578;-74
2021/04/10 11:00:59;;;;;;;2.13;0.68;;;;;;;13.84;45.08;96914.59;5106151;27;20039;-75
2021/04/10 11:03:25;;;;;;;0.90;0.45;;;;;;;14.26;44.30;96915.88;5112539;27;20031;-74
2021/04/10 11:05:50;;;;;;;1.35;0.73;;;;;;;14.24;43.84;96913.53;5105052;27;20317;-74
2021/04/10 11:08:17;;;;;;;2.85;0.82;;;;;;;13.98;43.99;96910.34;5111135;27;20031;-75
2021/04/10 11:10:46;;;;;;;1.67;0.70;;;;;;;14.53;43.79;96910.16;5094110;27;20062;-74
2021/04/10 11:13:16;;;;;;;2.08;0.95;;;;;;;14.45;43.11;96912.59;5093561;27;20031;-74
2021/04/10 11:15:45;;;;;;;1.33;0.50;;;;;;;14.53;41.36;96910.16;5105587;27;20085;-74
2021/04/10 11:18:27;;;;;;;3.83;0.80;;;;;;;13.33;44.24;96905.16;5077941;27;20019;-75
2021/04/10 11:21:13;;;;;;;2.38;0.57;;;;;;;13.61;44.73;96908.19;5101343;27;20038;-74
2021/04/10 11:23:58;;;;;;;1.35;0.50;;;;;;;14.17;43.49;96912.28;5099531;27;20292;-74
2021/04/10 11:26:40;;;;;;;1.73;0.50;;;;;;;14.21;43.25;96908.06;5098260;27;20024;-74
2021/04/10 11:29:24;;;;;;;2.28;0.90;;;;;;;14.43;43.59;96907.63;5070555;27;20038;-74
2021/04/10 11:32:14;;;;;;;2.17;0.70;;;;;;;14.53;43.32;96910.16;5106697;28;20482;-74
2021/04/10 11:34:47;;;;;;;1.13;0.60;;;;;;;14.60;43.47;96910.63;5123985;27;20041;-74
2021/04/10 11:37:14;;;;;;;2.25;0.82;;;;;;;14.55;44.10;96904.66;5105696;27;20035;-74
2021/04/10 11:40:00;;;;;;;1.45;0.65;;;;;;;14.33;44.64;96905.09;5094166;27;20161;-74